• Join FlightAware (Why Join?)
  • Login
  • US Flag 
05:20AM EST


 

Airport Tracker/Info


-or-


 

Live Flight TrackerFlight Track Log ✈ SWA554 ✈ 25-Jul-2014 ✈ KBWI - KMSY

Flight Track Log - Related Links

Times and Time Zones

All times are in EDT time to prevent confusion due to time zone crossing. See the SWA554 flight status page for this flight to view local times or setup timezone preferences in your user account.

Time Position Orientation Groundspeed Altitude Reporting Facility
EDT Latitude Longitude Course Direction KTS MPH feet Rate Location/Type
02:37PM 39.1833 -76.7000 270° West 168 193 900  Level Potomac TRACON
02:38PM 39.1833 -76.7667 270° West 224 258 3,200 2,340 Climbing Potomac TRACON
02:39PM 39.2000 -76.8500 284° West 260 299 5,700 2,820 Climbing Potomac TRACON
02:40PM 39.2167 -76.9500 282° West 278 320 8,900 2,460 Climbing Potomac TRACON
02:41PM 39.2167 -77.0500 270° West 294 338 10,700 1,920 Climbing Potomac TRACON
02:42PM 39.2000 -77.1667 260° West 346 398 12,800 2,100 Climbing Potomac TRACON
02:43PM 39.1167 -77.2333 212° Southwest 357 411 15,000 2,040 Climbing Potomac TRACON
02:44PM 39.0075 -77.3297 214° Southwest 368 423 17,600 1,800 Climbing Washington Center
02:45PM 38.9106 -77.3922 207° Southwest 386 444 19,400 1,440 Climbing Washington Center
02:46PM 38.8086 -77.4569 206° Southwest 398 458 20,700 1,620 Climbing Washington Center
02:47PM 38.6922 -77.5464 211° Southwest 400 460 22,800 1,680 Climbing Washington Center
02:48PM 38.6006 -77.6358 217° Southwest 405 466 24,200 1,380 Climbing Washington Center
02:49PM 38.5089 -77.7300 219° Southwest 413 475 25,700 1,560 Climbing Washington Center
02:50PM 38.4425 -77.8506 235° Southwest 415 478 27,500 1,020 Climbing Washington Center
02:51PM 38.3794 -77.9708 236° Southwest 409 471 27,900 180 Climbing Washington Center
02:52PM 38.3153 -78.0928 236° Southwest 409 471 27,900  Level Washington Center
02:53PM 38.2517 -78.2139 236° Southwest 409 471 27,900  Level Washington Center
02:54PM 38.1747 -78.3572 236° Southwest 408 470 27,900  Level Washington Center
02:55PM 38.1139 -78.4792 238° Southwest 407 468 27,900  Level Washington Center
02:57PM 38.0744 -78.6014 248° West 403 464 27,900  Level Washington Center
02:58PM 38.0200 -78.7247 241° Southwest 403 464 27,900  Level Washington Center
02:59PM 37.9494 -78.8703 238° Southwest 403 464 27,900  Level Washington Center
03:00PM 37.8917 -78.9925 239° Southwest 404 465 27,900  Level Washington Center
03:01PM 37.8342 -79.1142 239° Southwest 404 465 27,900  Level Washington Center
03:02PM 37.7764 -79.2367 239° Southwest 405 466 27,900  Level Washington Center
03:03PM 37.7108 -79.3711 238° Southwest 408 470 27,900  Level Washington Center
03:04PM 37.6508 -79.4975 239° Southwest 415 478 27,900  Level Washington Center
03:05PM 37.5911 -79.6253 239° Southwest 420 483 27,900  Level Washington Center
03:06PM 37.5289 -79.7500 238° Southwest 421 484 27,900  Level Washington Center
03:07PM 37.4650 -79.8789 238° Southwest 422 486 27,900  Level Washington Center
03:08PM 37.3906 -80.0314 238° Southwest 425 489 27,900  Level Washington Center
03:09PM 37.3283 -80.1581 238° Southwest 426 490 27,900  Level Washington Center
03:10PM 37.2653 -80.2853 238° Southwest 427 491 27,900  Level Washington Center
03:11PM 37.1858 -80.4464 238° Southwest 446 513 27,900  Level Atlanta Center
03:12PM 37.1208 -80.5769 238° Southwest 446 513 27,900  Level Atlanta Center
03:13PM 37.0578 -80.7019 238° Southwest 446 513 27,900  Level Atlanta Center
03:14PM 36.9922 -80.8319 238° Southwest 446 513 27,900  Level Atlanta Center
03:15PM 36.9267 -80.9592 237° Southwest 446 513 27,900  Level Atlanta Center
03:16PM 36.8633 -81.0889 239° Southwest 446 513 27,900  Level Atlanta Center
03:17PM 36.7975 -81.2183 238° Southwest 446 513 27,900  Level Atlanta Center
03:18PM 36.7356 -81.3422 238° Southwest 446 513 27,900  Level Atlanta Center
03:19PM 36.6717 -81.4739 239° Southwest 446 513 27,900  Level Atlanta Center
03:20PM 36.6014 -81.6053 236° Southwest 446 513 27,900  Level Atlanta Center
03:21PM 36.5331 -81.7392 238° Southwest 452 520 27,900  Level Atlanta Center
03:22PM 36.4667 -81.8703 238° Southwest 447 514 27,900  Level Atlanta Center
03:23PM 36.3981 -81.9986 236° Southwest 458 527 27,900  Level Atlanta Center
03:24PM 36.3292 -82.1317 237° Southwest 458 527 27,900  Level Atlanta Center
03:25PM 36.2603 -82.2647 237° Southwest 458 527 27,900  Level Atlanta Center
03:26PM 36.1892 -82.3975 236° Southwest 463 533 27,900 -900 Level Atlanta Center
03:27PM 36.1200 -82.5272 237° Southwest 463 533 26,200 -1,020 Descending Atlanta Center
03:28PM 36.0525 -82.6569 237° Southwest 458 527 25,900 -180 Descending Atlanta Center
03:29PM 35.9872 -82.7814 237° Southwest 453 521 25,900  Level Atlanta Center
03:30PM 35.9194 -82.9081 237° Southwest 448 516 25,900  Level Atlanta Center
03:31PM 35.8519 -83.0344 237° Southwest 448 516 25,900  Level Atlanta Center
03:32PM 35.7839 -83.1608 236° Southwest 448 516 25,900  Level Atlanta Center
03:33PM 35.7181 -83.2919 238° Southwest 448 516 25,900  Level Atlanta Center
03:34PM 35.6478 -83.4228 237° Southwest 454 522 25,900  Level Atlanta Center
03:35PM 35.5733 -83.5536 235° Southwest 466 536 25,900  Level Atlanta Center
03:36PM 35.5028 -83.6892 237° Southwest 471 542 25,900  Level Atlanta Center
03:37PM 35.4281 -83.8222 235° Southwest 471 542 25,900  Level Atlanta Center
03:38PM 35.3531 -83.9572 236° Southwest 476 548 25,900  Level Atlanta Center
03:39PM 35.2800 -84.0922 236° Southwest 481 554 25,900  Level Atlanta Center
03:40PM 35.2092 -84.2219 236° Southwest 481 554 25,900  Level Atlanta Center
03:41PM 35.1358 -84.3536 236° Southwest 481 554 25,900  Level Atlanta Center
03:42PM 35.0622 -84.4853 236° Southwest 481 554 25,900  Level Atlanta Center
03:43PM 34.9908 -84.6142 236° Southwest 476 548 25,900  Level Atlanta Center
03:44PM 34.9172 -84.7456 236° Southwest 476 548 25,900  Level Atlanta Center
03:45PM 34.8433 -84.8739 235° Southwest 476 548 25,900  Level Atlanta Center
03:46PM 34.7797 -84.9897 236° Southwest 469 540 25,900  Level Atlanta Center
03:47PM 34.7058 -85.1178 235° Southwest 469 540 25,900  Level Atlanta Center
03:48PM 34.6314 -85.2481 235° Southwest 469 540 25,900  Level Atlanta Center
03:49PM 34.5572 -85.3781 235° Southwest 469 540 25,900  Level Atlanta Center
03:50PM 34.4867 -85.5056 236° Southwest 469 540 25,900  Level Atlanta Center
03:51PM 34.4122 -85.6325 235° Southwest 463 533 25,900  Level Atlanta Center
03:52PM 34.3331 -85.7744 236° Southwest 468 539 25,900  Level Atlanta Center
03:53PM 34.2647 -85.8861 234° Southwest 463 533 25,900  Level Atlanta Center
03:54PM 34.1897 -86.0128 234° Southwest 463 533 25,900  Level Atlanta Center
03:55PM 34.1144 -86.1414 235° Southwest 468 539 25,900  Level Atlanta Center
03:56PM 34.0414 -86.2675 235° Southwest 468 539 25,900  Level Atlanta Center
03:57PM 33.9658 -86.3983 235° Southwest 468 539 25,900  Level Atlanta Center
03:58PM 33.8903 -86.5264 235° Southwest 468 539 25,900  Level Atlanta Center
03:59PM 33.8167 -86.6517 235° Southwest 468 539 25,900  Level Atlanta Center
04:00PM 33.7408 -86.7792 234° Southwest 468 539 25,900  Level Atlanta Center
04:01PM 33.6650 -86.9042 234° Southwest 468 539 25,900  Level Atlanta Center
04:02PM 33.5869 -87.0236 232° Southwest 468 539 25,900  Level Atlanta Center
04:03PM 33.5044 -87.1478 231° Southwest 468 539 25,900  Level Atlanta Center
04:04PM 33.4242 -87.2669 231° Southwest 473 544 25,900  Level Atlanta Center
04:06PM 33.2300 -87.5594 232° Southwest 466 536 25,900  Level Memphis Center
04:08PM 33.1494 -87.6806 232° Southwest 465 535 25,900  Level Memphis Center
04:09PM 33.0678 -87.7986 230° Southwest 465 535 25,900  Level Memphis Center
04:10PM 32.9872 -87.9203 232° Southwest 465 535 25,900  Level Memphis Center
04:11PM 32.8900 -88.0622 231° Southwest 465 535 25,900  Level Memphis Center
04:12PM 32.8097 -88.1800 231° Southwest 463 533 25,900  Level Memphis Center
04:13PM 32.7289 -88.2969 231° Southwest 462 532 25,900  Level Memphis Center
04:14PM 32.6408 -88.4239 231° Southwest 462 532 25,900  Level Memphis Center
04:15PM 32.5611 -88.5431 232° Southwest 461 531 25,900  Level Memphis Center
04:16PM 32.4800 -88.6600 231° Southwest 461 531 25,900  Level Memphis Center
04:17PM 32.3997 -88.7739 230° Southwest 458 527 25,900  Level Memphis Center
04:18PM 32.3058 -88.8758 223° Southwest 458 527 25,900  Level Memphis Center
04:19PM 32.1861 -88.9919 219° Southwest 462 532 25,900  Level Memphis Center
04:20PM 32.0881 -89.0878 220° Southwest 463 533 25,900  Level Memphis Center
04:21PM 31.9886 -89.1822 219° Southwest 463 533 25,900  Level Memphis Center
04:22PM 31.8903 -89.2786 220° Southwest 462 532 25,900  Level Memphis Center
04:23PM 31.7906 -89.3736 219° Southwest 463 533 25,900  Level Memphis Center
04:24PM 31.6908 -89.4683 219° Southwest 463 533 25,900 -60 Level Memphis Center
04:25PM 31.6008 -89.5550 219° Southwest 463 533 25,800 -600 Descending Houston Center
04:26PM 31.5008 -89.6492 219° Southwest 463 533 24,900 -960 Descending Houston Center
04:27PM 31.4036 -89.7422 219° Southwest 456 525 23,900 -780 Descending Houston Center
04:28PM 31.3069 -89.8342 219° Southwest 454 522 23,300 -780 Descending Houston Center
04:29PM 31.2108 -89.9258 219° Southwest 450 518 22,300 -1,020 Descending Houston Center
04:30PM 31.1169 -90.0131 219° Southwest 441 507 21,300 -1,380 Descending Houston Center
04:31PM 31.0056 -90.1186 219° Southwest 435 501 19,500 -2,040 Descending Houston Center
04:32PM 30.9136 -90.2028 218° Southwest 431 496 17,200 -2,280 Descending Houston Center
04:33PM 30.8078 -90.2217 189° South 397 457 14,800 -2,520 Descending Houston Center
04:33PM 30.7794 -90.2214 180° South 390 449 14,200 -2,280 Descending Houston Center
04:34PM 30.7019 -90.2136 175° South 388 447 12,500 -1,740 Descending Houston Center
04:35PM 30.6019 -90.2072 177° South 370 426 11,000 -1,320 Descending Houston Center
04:36PM 30.4981 -90.2164 184° South 318 366 9,800 -1,260 Descending Houston Center
04:37PM 30.4203 -90.2186 181° South 297 342 8,400 -1,500 Descending Houston Center
04:38PM 30.3278 -90.2061 173° South 287 330 6,700 -1,260 Descending Houston Center
04:39PM 30.2522 -90.1947 173° South 267 307 5,800 -1,200 Descending Houston Center
04:40PM 30.1850 -90.1836 172° South 260 299 4,400 -1,380 Descending Houston Center
04:41PM 30.1261 -90.2067 199° South 241 277 3,000 -1,320 Descending Houston Center
04:42PM 30.0692 -90.2236 194° South 188 216 1,700 -1,200 Descending Houston Center
04:43PM 30.0278 -90.2375 196° South 140 161 600 -600 Descending Houston Center
04:44PM 29.9947 -90.2486 196° South 173 199 500 -120 Descending Houston Center
04:46PM 29.9833 -90.2500 190° South  Level FlightAware Approximate
04:53PM 29.9933 -90.2590 190° South  Level Estimated
04:54PM 29.9933 -90.2590 190° South  Level Estimated
04:55PM 29.9933 -90.2590 190° South  Level Estimated